This is the latest recevied weather packets stored in our database for station/object VK5TRM-13. If no packets are shown the sender has not sent any weather packets the latest 10 day(s).
| Time | Temp. | Humidity | Pressure | Rain* | Wind** | Luminosity | Snow |
|---|---|---|---|---|---|---|---|
| 1787411102 | 12.22° C | 87% | 1027 hPa | 0 mm | - | - | - |
| 1787410202 | 12.22° C | 87% | 1027.1 hPa | 0 mm | - | - | - |
| 1787409302 | 11.67° C | 87% | 1027.2 hPa | 0 mm | - | - | - |
| 1787408403 | 11.67° C | 87% | 1027.2 hPa | 0 mm | - | - | - |
| 1787407503 | 11.67° C | 87% | 1027.2 hPa | 0 mm | - | - | - |
| 1787406602 | 11.67° C | 85% | 1027.4 hPa | 0 mm | - | - | - |
| 1787405702 | 11.67° C | 85% | 1027.4 hPa | 0 mm | - | - | - |
| 1787404803 | 12.22° C | 81% | 1027.5 hPa | 0 mm | - | - | - |
| 1787403902 | 12.22° C | 81% | 1027.5 hPa | 0 mm | - | - | - |
| 1787403003 | 10.56° C | 89% | 1027.4 hPa | 0 mm | - | - | - |
| 1787402102 | 10.56° C | 89% | 1027.4 hPa | 0 mm | - | - | - |
| 1787401202 | 11.67° C | 85% | 1027.4 hPa | 0 mm | - | - | - |
| 1787400302 | 11.67° C | 85% | 1027.4 hPa | 0 mm | - | - | - |
| 1787399403 | 12.78° C | 85% | 1027.5 hPa | 0 mm | - | - | - |
| 1787398503 | 12.78° C | 85% | 1027.5 hPa | 0 mm | - | - | - |
| 1787397602 | 12.78° C | 85% | 1027.6 hPa | 0 mm | - | - | - |
| 1787396702 | 12.78° C | 85% | 1027.6 hPa | 0 mm | - | - | - |
| 1787395803 | 13.33° C | 84% | 1027.4 hPa | 0 mm | - | - | - |
| 1787394903 | 13.33° C | 84% | 1027.4 hPa | 0 mm | - | - | - |
| 1787394003 | 13.89° C | 82% | 1027.3 hPa | 0 mm | - | - | - |
| 1787393102 | 13.89° C | 82% | 1027.3 hPa | 0 mm | - | - | - |
| 1787392202 | 14.44° C | 75% | 1027.1 hPa | 0 mm | - | - | - |
| 1787391302 | 14.44° C | 75% | 1027.1 hPa | 0 mm | - | - | - |
| 1787390402 | 14.44° C | 76% | 1026.8 hPa | 0 mm | - | - | - |
| 1787389502 | 14.44° C | 76% | 1026.8 hPa | 0 mm | - | - | - |
* Rain latest hour (hover to see other rain measurements)
** Current wind speed in m/s (hover to see current wind gust speed)